createdAt,value
2022-07-26T00:00:18.978Z,25.76
2022-07-26T00:01:18.734Z,25.74
2022-07-26T00:02:23.216Z,25.68
2022-07-26T00:03:18.490Z,25.68
2022-07-26T00:04:18.502Z,25.63
2022-07-26T00:05:18.524Z,25.7
2022-07-26T00:06:21.209Z,25.55
2022-07-26T00:07:18.538Z,25.66
2022-07-26T00:08:18.523Z,25.68
2022-07-26T00:09:18.509Z,25.62
2022-07-26T00:10:18.528Z,25.68
2022-07-26T00:11:18.509Z,25.58
2022-07-26T00:12:19.051Z,25.52
2022-07-26T00:13:21.615Z,25.55
2022-07-26T00:14:18.519Z,25.58
2022-07-26T00:15:18.524Z,25.58
2022-07-26T00:16:18.770Z,25.62
2022-07-26T00:17:18.543Z,25.61
2022-07-26T00:18:18.565Z,25.55
2022-07-26T00:19:18.642Z,25.55
2022-07-26T00:20:18.530Z,25.61
2022-07-26T00:21:18.529Z,25.51
2022-07-26T00:22:18.562Z,25.55
2022-07-26T00:23:18.532Z,25.41
2022-07-26T00:24:21.693Z,25.62
2022-07-26T00:25:18.537Z,25.54
2022-07-26T00:26:18.545Z,25.49
2022-07-26T00:27:18.559Z,25.55
2022-07-26T00:28:18.542Z,25.56
2022-07-26T00:29:18.573Z,25.49
2022-07-26T00:30:18.544Z,25.48
2022-07-26T00:31:18.804Z,25.41
2022-07-26T00:32:18.571Z,25.49
2022-07-26T00:33:18.572Z,25.44
2022-07-26T00:34:19.072Z,25.54
2022-07-26T00:35:18.551Z,25.43
2022-07-26T00:36:18.554Z,25.34
2022-07-26T00:37:24.520Z,25.44
2022-07-26T00:38:18.821Z,25.46
2022-07-26T00:39:18.563Z,25.52
2022-07-26T00:40:18.580Z,25.44
2022-07-26T00:41:18.575Z,25.34
2022-07-26T00:42:18.430Z,25.39
2022-07-26T00:43:18.576Z,25.33
2022-07-26T00:44:18.589Z,25.29
2022-07-26T00:45:18.595Z,25.3
2022-07-26T00:46:18.835Z,25.24
2022-07-26T00:47:18.619Z,25.24
2022-07-26T00:48:20.206Z,25.19
2022-07-26T00:49:18.987Z,25.21
2022-07-26T00:50:18.601Z,25.19
2022-07-26T00:51:18.587Z,25.19
2022-07-26T00:52:18.618Z,25.18
2022-07-26T00:53:18.591Z,25.33
2022-07-26T00:54:18.594Z,25.14
2022-07-26T00:55:18.592Z,25.11
2022-07-26T00:56:19.905Z,25.14
2022-07-26T00:57:18.612Z,25.12
2022-07-26T00:58:18.612Z,25.04
2022-07-26T00:59:18.643Z,25.14
2022-07-26T01:00:18.623Z,25.03
2022-07-26T01:01:18.912Z,25
2022-07-26T01:02:20.194Z,25.11
2022-07-26T01:03:18.605Z,25
2022-07-26T01:04:18.609Z,25.06
2022-07-26T01:05:18.607Z,25
2022-07-26T01:06:18.607Z,25.06
2022-07-26T01:07:22.761Z,25.04
2022-07-26T01:08:18.620Z,24.99
2022-07-26T01:09:18.620Z,24.99
2022-07-26T01:10:18.622Z,24.96
2022-07-26T01:11:18.628Z,24.89
2022-07-26T01:12:18.679Z,24.96
2022-07-26T01:13:18.622Z,24.99
2022-07-26T01:14:18.629Z,24.97
2022-07-26T01:15:19.011Z,24.86
2022-07-26T01:16:19.033Z,24.94
2022-07-26T01:17:18.684Z,24.94
2022-07-26T01:18:21.659Z,24.84
2022-07-26T01:19:19.651Z,24.93
2022-07-26T01:20:18.645Z,24.89
2022-07-26T01:21:19.047Z,24.92
2022-07-26T01:22:19.485Z,25
2022-07-26T01:23:18.662Z,24.96
2022-07-26T01:24:18.643Z,24.88
2022-07-26T01:25:18.655Z,24.86
2022-07-26T01:26:18.664Z,24.82
2022-07-26T01:27:18.704Z,24.86
2022-07-26T01:28:24.842Z,24.89
2022-07-26T01:29:21.422Z,24.84
2022-07-26T01:30:18.655Z,24.93
2022-07-26T01:31:19.059Z,24.81
2022-07-26T01:32:18.701Z,24.85
2022-07-26T01:33:18.674Z,24.69
2022-07-26T01:34:18.712Z,24.75
2022-07-26T01:35:18.692Z,24.69
2022-07-26T01:36:18.676Z,24.77
2022-07-26T01:37:18.700Z,24.74
2022-07-26T01:38:18.713Z,24.74
2022-07-26T01:39:18.704Z,24.66
2022-07-26T01:40:19.716Z,24.77
2022-07-26T01:41:18.689Z,24.56
2022-07-26T01:42:18.727Z,24.63
2022-07-26T01:43:18.810Z,24.61
2022-07-26T01:44:18.703Z,24.62
2022-07-26T01:45:21.772Z,24.62
2022-07-26T01:46:19.019Z,24.62
2022-07-26T01:47:18.706Z,24.58
2022-07-26T01:48:18.704Z,24.61
2022-07-26T01:49:18.978Z,24.62
2022-07-26T01:50:18.710Z,24.59
2022-07-26T01:51:21.987Z,24.56
2022-07-26T01:52:18.722Z,24.53
2022-07-26T01:53:18.697Z,24.53
2022-07-26T01:54:26.773Z,24.44
2022-07-26T01:55:18.731Z,24.53
2022-07-26T01:56:21.557Z,24.48
2022-07-26T01:57:18.751Z,24.44
2022-07-26T01:58:18.747Z,24.43
2022-07-26T01:59:18.729Z,24.44
2022-07-26T02:00:18.731Z,24.38
2022-07-26T02:01:40.513Z,24.38
2022-07-26T02:02:22.019Z,24.38
2022-07-26T02:03:18.969Z,24.41
2022-07-26T02:04:18.725Z,24.46
2022-07-26T02:05:18.745Z,24.46
2022-07-26T02:06:19.456Z,24.36
2022-07-26T02:07:20.298Z,24.25
2022-07-26T02:08:21.293Z,24.32
2022-07-26T02:09:19.317Z,24.44
2022-07-26T02:10:19.694Z,24.24
2022-07-26T02:11:18.730Z,24.29
2022-07-26T02:12:18.782Z,24.25
2022-07-26T02:13:21.842Z,24.31
2022-07-26T02:14:32.715Z,24.29
2022-07-26T02:15:18.743Z,24.28
2022-07-26T02:16:19.099Z,24.32
2022-07-26T02:17:18.989Z,24.36
2022-07-26T02:18:21.782Z,24.32
2022-07-26T02:19:18.761Z,24.36
2022-07-26T02:20:18.763Z,24.34
2022-07-26T02:21:19.038Z,24.31
2022-07-26T02:22:18.814Z,24.43
2022-07-26T02:23:18.774Z,24.26
2022-07-26T02:24:19.000Z,24.38
2022-07-26T02:25:18.782Z,24.36
2022-07-26T02:26:18.764Z,24.26
2022-07-26T02:27:18.790Z,24.31
2022-07-26T02:28:18.838Z,24.25
2022-07-26T02:29:21.960Z,24.29
2022-07-26T02:30:18.776Z,24.26
2022-07-26T02:31:20.724Z,24.28
2022-07-26T02:32:19.023Z,24.28
2022-07-26T02:33:18.764Z,24.25
2022-07-26T02:34:18.789Z,24.25
2022-07-26T02:35:18.796Z,24.28
2022-07-26T02:36:18.773Z,24.28
2022-07-26T02:37:18.798Z,24.29
2022-07-26T02:38:18.785Z,24.24
2022-07-26T02:39:18.786Z,24.1
2022-07-26T02:40:24.183Z,24.25
2022-07-26T02:41:18.797Z,24.16
2022-07-26T02:42:18.844Z,24.13
2022-07-26T02:43:18.793Z,24.16
2022-07-26T02:44:18.808Z,24.18
2022-07-26T02:45:18.811Z,24.09
2022-07-26T02:46:18.925Z,24.1
2022-07-26T02:47:18.823Z,24.01
2022-07-26T02:48:19.151Z,24.19
2022-07-26T02:49:19.162Z,24.18
2022-07-26T02:50:18.845Z,24.19
2022-07-26T02:51:19.929Z,24.11
2022-07-26T02:52:18.834Z,24.22
2022-07-26T02:53:18.807Z,24.14
2022-07-26T02:54:18.819Z,24.13
2022-07-26T02:55:18.837Z,24.13
2022-07-26T02:56:18.835Z,24.22
2022-07-26T02:57:18.842Z,24.11
2022-07-26T02:58:18.825Z,24.16
2022-07-26T02:59:18.844Z,24.1
2022-07-26T03:00:18.843Z,24.24
2022-07-26T03:01:19.052Z,24.1
2022-07-26T03:02:19.039Z,24.21
2022-07-26T03:03:18.881Z,24.04
2022-07-26T03:04:18.841Z,24.25
2022-07-26T03:05:18.830Z,24.1
2022-07-26T03:06:18.846Z,24.1
2022-07-26T03:07:18.878Z,24.09
2022-07-26T03:08:18.836Z,23.96
2022-07-26T03:09:18.854Z,24.04
2022-07-26T03:10:18.853Z,24.03
2022-07-26T03:11:18.846Z,24.04
2022-07-26T03:12:18.865Z,24.06
2022-07-26T03:13:18.865Z,24.03
2022-07-26T03:14:18.853Z,24.07
2022-07-26T03:15:18.848Z,24
2022-07-26T03:16:29.350Z,24.01
2022-07-26T03:17:18.885Z,24.03
2022-07-26T03:18:18.861Z,24.1
2022-07-26T03:19:18.871Z,24
2022-07-26T03:20:18.864Z,24.04
2022-07-26T03:21:18.881Z,24.09
2022-07-26T03:22:18.890Z,24.07
2022-07-26T03:23:19.925Z,23.99
2022-07-26T03:24:18.862Z,24.01
2022-07-26T03:25:18.872Z,24.09
2022-07-26T03:26:18.870Z,24.04
2022-07-26T03:27:18.903Z,23.99
2022-07-26T03:28:23.867Z,24.01
2022-07-26T03:29:18.901Z,23.95
2022-07-26T03:30:26.952Z,23.92
2022-07-26T03:31:19.133Z,23.99
2022-07-26T03:32:18.986Z,23.92
2022-07-26T03:33:18.888Z,23.95
2022-07-26T03:34:21.906Z,23.96
2022-07-26T03:35:18.886Z,23.94
2022-07-26T03:36:20.452Z,24.03
2022-07-26T03:37:18.919Z,23.91
2022-07-26T03:38:18.890Z,23.82
2022-07-26T03:39:18.908Z,23.92
2022-07-26T03:40:18.898Z,24
2022-07-26T03:41:18.901Z,23.95
2022-07-26T03:42:18.955Z,24.01
2022-07-26T03:43:23.339Z,23.95
2022-07-26T03:44:18.900Z,23.85
2022-07-26T03:45:21.983Z,23.92
2022-07-26T03:46:19.200Z,23.95
2022-07-26T03:47:18.930Z,23.88
2022-07-26T03:48:18.912Z,23.82
2022-07-26T03:49:21.922Z,23.88
2022-07-26T03:50:18.922Z,23.86
2022-07-26T03:51:18.925Z,23.77
2022-07-26T03:52:18.966Z,23.84
2022-07-26T03:53:18.918Z,23.76
2022-07-26T03:54:18.931Z,23.88
2022-07-26T03:55:18.928Z,23.77
2022-07-26T03:56:22.805Z,23.95
2022-07-26T03:57:18.953Z,23.77
2022-07-26T03:58:18.934Z,23.81
2022-07-26T03:59:18.964Z,23.88
2022-07-26T04:00:18.932Z,23.77
2022-07-26T04:01:20.405Z,23.77
2022-07-26T04:02:19.208Z,23.84
2022-07-26T04:03:18.957Z,23.71
2022-07-26T04:04:23.431Z,23.86
2022-07-26T04:05:26.126Z,23.71
2022-07-26T04:06:19.896Z,23.67
2022-07-26T04:07:20.794Z,23.66
2022-07-26T04:08:19.044Z,23.69
2022-07-26T04:09:19.008Z,23.63
2022-07-26T04:10:20.720Z,23.63
2022-07-26T04:11:19.048Z,23.52
2022-07-26T04:12:19.010Z,23.52
2022-07-26T04:13:19.015Z,23.56
2022-07-26T04:14:19.000Z,23.62
2022-07-26T04:15:19.141Z,23.45
2022-07-26T04:16:18.996Z,23.42
2022-07-26T04:17:19.180Z,23.44
2022-07-26T04:18:20.573Z,23.55
2022-07-26T04:19:21.741Z,23.49
2022-07-26T04:20:19.043Z,23.49
2022-07-26T04:21:19.002Z,23.49
2022-07-26T04:22:18.979Z,23.56
2022-07-26T04:23:21.745Z,23.59
2022-07-26T04:24:18.980Z,23.66
2022-07-26T04:25:18.983Z,23.64
2022-07-26T04:26:18.983Z,23.63
2022-07-26T04:27:18.987Z,23.64
2022-07-26T04:28:18.984Z,23.73
2022-07-26T04:29:21.888Z,23.66
2022-07-26T04:30:20.303Z,23.76
2022-07-26T04:31:19.383Z,23.66
2022-07-26T04:32:18.993Z,23.64
2022-07-26T04:33:19.002Z,23.56
2022-07-26T04:34:22.048Z,23.47
2022-07-26T04:35:19.001Z,23.55
2022-07-26T04:36:18.999Z,23.56
2022-07-26T04:37:19.001Z,23.49
2022-07-26T04:38:19.157Z,23.49
2022-07-26T04:39:19.006Z,23.56
2022-07-26T04:40:21.032Z,23.44
2022-07-26T04:41:19.006Z,23.49
2022-07-26T04:42:19.043Z,23.49
2022-07-26T04:43:20.196Z,23.47
2022-07-26T04:44:19.014Z,23.39
2022-07-26T04:45:21.848Z,23.42
2022-07-26T04:46:19.231Z,23.42
2022-07-26T04:47:19.039Z,23.49
2022-07-26T04:48:19.030Z,23.51
2022-07-26T04:49:19.257Z,23.49
2022-07-26T04:50:19.946Z,23.48
2022-07-26T04:51:19.037Z,23.48
2022-07-26T04:52:19.033Z,23.51
2022-07-26T04:53:19.545Z,23.49
2022-07-26T04:54:19.034Z,23.52
2022-07-26T04:55:19.063Z,23.48
2022-07-26T04:56:22.040Z,23.44
2022-07-26T04:57:19.073Z,23.48
2022-07-26T04:58:21.417Z,23.54
2022-07-26T04:59:24.360Z,23.49
2022-07-26T05:00:27.022Z,23.45
2022-07-26T05:01:19.331Z,23.54
2022-07-26T05:02:19.562Z,23.47
2022-07-26T05:03:19.278Z,23.36
2022-07-26T05:04:19.055Z,23.34
2022-07-26T05:05:19.045Z,23.47
2022-07-26T05:06:19.050Z,23.44
2022-07-26T05:07:22.364Z,23.39
2022-07-26T05:08:19.127Z,23.42
2022-07-26T05:09:19.060Z,23.37
2022-07-26T05:10:20.093Z,23.37
2022-07-26T05:11:19.083Z,23.42
2022-07-26T05:12:19.080Z,23.23
2022-07-26T05:13:30.285Z,23.37
2022-07-26T05:14:19.071Z,23.32
2022-07-26T05:15:19.080Z,23.37
2022-07-26T05:16:19.473Z,23.26
2022-07-26T05:17:24.272Z,23.45
2022-07-26T05:18:25.670Z,23.42
2022-07-26T05:19:19.088Z,23.49
2022-07-26T05:20:19.100Z,23.49
2022-07-26T05:21:19.101Z,23.49
2022-07-26T05:22:19.103Z,23.51
2022-07-26T05:23:19.127Z,23.64
2022-07-26T05:24:19.101Z,23.64
2022-07-26T05:25:19.161Z,23.69
2022-07-26T05:26:19.235Z,23.73
2022-07-26T05:27:19.160Z,23.7
2022-07-26T05:28:19.153Z,23.73
2022-07-26T05:29:19.110Z,23.76
2022-07-26T05:30:21.852Z,23.63
2022-07-26T05:31:19.451Z,23.44
2022-07-26T05:32:19.144Z,23.39
2022-07-26T05:33:21.199Z,23.37
2022-07-26T05:34:19.211Z,23.45
2022-07-26T05:35:19.140Z,23.49
2022-07-26T05:36:19.191Z,23.52
2022-07-26T05:37:19.122Z,23.4
2022-07-26T05:38:19.208Z,23.49
2022-07-26T05:39:20.784Z,23.66
2022-07-26T05:40:19.119Z,23.58
2022-07-26T05:41:25.679Z,23.66
2022-07-26T05:43:11.028Z,23.66
2022-07-26T05:43:40.626Z,23.66
2022-07-26T05:44:28.971Z,23.71
2022-07-26T05:45:32.944Z,23.7
2022-07-26T05:46:22.581Z,23.69
2022-07-26T05:47:23.403Z,23.58
2022-07-26T05:48:23.183Z,23.69
2022-07-26T05:49:22.393Z,23.63
2022-07-26T05:50:22.442Z,23.66
2022-07-26T05:51:23.765Z,23.67
2022-07-26T05:52:22.201Z,23.79
2022-07-26T05:53:22.223Z,23.92
2022-07-26T05:54:27.628Z,23.73
2022-07-26T05:55:22.205Z,23.85
2022-07-26T05:56:24.997Z,23.76
2022-07-26T05:57:22.224Z,23.73
2022-07-26T05:58:22.235Z,23.88
2022-07-26T05:59:22.227Z,23.73
2022-07-26T06:00:22.221Z,23.73
2022-07-26T06:01:26.636Z,23.82
2022-07-26T06:02:22.459Z,23.79
2022-07-26T06:03:22.286Z,23.86
2022-07-26T06:04:22.413Z,23.91
2022-07-26T06:05:22.239Z,23.96
2022-07-26T06:06:22.231Z,23.92
2022-07-26T06:07:25.238Z,23.89
2022-07-26T06:08:22.479Z,23.89
2022-07-26T06:09:23.346Z,23.94
2022-07-26T06:10:22.249Z,23.92
2022-07-26T06:11:22.237Z,23.89
2022-07-26T06:12:24.581Z,23.89
2022-07-26T06:13:22.966Z,23.84
2022-07-26T06:14:22.429Z,23.76
2022-07-26T06:15:22.255Z,23.79
2022-07-26T06:16:45.654Z,23.74
2022-07-26T06:17:22.919Z,23.94
2022-07-26T06:18:22.295Z,23.85
2022-07-26T06:19:22.285Z,23.94
2022-07-26T06:20:22.275Z,23.96
2022-07-26T06:21:22.532Z,24.04
2022-07-26T06:22:23.828Z,24.07
2022-07-26T06:23:38.677Z,24.06
2022-07-26T06:24:22.513Z,24.21
2022-07-26T06:25:22.263Z,24.09
2022-07-26T06:26:23.296Z,24.14
2022-07-26T06:27:22.283Z,24.16
2022-07-26T06:28:22.326Z,24.32
2022-07-26T06:29:22.332Z,24.32
2022-07-26T06:30:23.603Z,24.46
2022-07-26T06:31:23.559Z,24.31
2022-07-26T06:33:17.389Z,24.36
2022-07-26T06:33:47.587Z,24.47
2022-07-26T06:34:32.484Z,24.55
2022-07-26T06:35:34.028Z,24.62
2022-07-26T06:36:54.562Z,24.96
2022-07-26T06:37:42.314Z,25.41
2022-07-26T06:38:36.879Z,25.54
2022-07-26T06:39:37.335Z,25.93
2022-07-26T06:40:37.767Z,26.11
2022-07-26T06:41:41.396Z,26.23
2022-07-26T06:42:37.997Z,26.52
2022-07-26T06:43:45.766Z,26.86
2022-07-26T06:44:38.342Z,27
2022-07-26T06:45:37.615Z,27.25
2022-07-26T06:46:37.041Z,27.4
2022-07-26T06:47:38.712Z,27.34
2022-07-26T06:48:37.982Z,27.48
2022-07-26T06:49:38.545Z,27.61
2022-07-26T06:50:38.078Z,27.34
2022-07-26T06:51:38.482Z,27.6
2022-07-26T06:52:40.343Z,27.75
2022-07-26T06:53:38.419Z,27.82
2022-07-26T06:54:37.979Z,27.93
2022-07-26T06:55:37.828Z,27.79
2022-07-26T06:56:38.091Z,27.61
2022-07-26T06:57:52.445Z,27.81
2022-07-26T06:58:36.825Z,27.78
2022-07-26T06:59:36.834Z,28.13
2022-07-26T07:00:36.827Z,28.15
2022-07-26T07:02:04.813Z,28.56
2022-07-26T07:02:36.829Z,28.27
2022-07-26T07:03:36.828Z,28.4
2022-07-26T07:04:37.116Z,28.6
2022-07-26T07:05:36.835Z,28.74
2022-07-26T07:06:36.856Z,28.71
2022-07-26T07:07:38.798Z,28.71
2022-07-26T07:08:40.121Z,28.82
2022-07-26T07:09:37.341Z,29.05
2022-07-26T07:10:39.169Z,29.28
2022-07-26T07:11:36.898Z,29.34
2022-07-26T07:12:36.846Z,29.49
2022-07-26T07:13:38.255Z,29.58
2022-07-26T07:14:36.881Z,29.61
2022-07-26T07:15:36.847Z,29.61
2022-07-26T07:16:37.087Z,29.64
2022-07-26T07:17:36.852Z,29.73
2022-07-26T07:18:36.862Z,29.83
2022-07-26T07:19:36.911Z,30.03
2022-07-26T07:20:36.876Z,29.81
2022-07-26T07:21:36.908Z,29.57
2022-07-26T07:22:36.877Z,29.74
2022-07-26T07:23:36.868Z,29.99
2022-07-26T07:24:37.417Z,30.24
2022-07-26T07:25:36.873Z,30.55
2022-07-26T07:26:39.069Z,30.7
2022-07-26T07:27:37.802Z,30.65
2022-07-26T07:28:37.123Z,30.33
2022-07-26T07:29:36.918Z,30.31
2022-07-26T07:30:36.883Z,30.49
2022-07-26T07:31:56.652Z,29.62
2022-07-26T07:32:37.470Z,29.71
2022-07-26T07:33:57.486Z,30.26
2022-07-26T07:34:38.355Z,30.48
2022-07-26T07:35:42.332Z,30.46
2022-07-26T07:36:37.892Z,29.73
2022-07-26T07:37:57.656Z,29.94
2022-07-26T07:38:45.195Z,29.65
2022-07-26T07:39:43.744Z,29.73
2022-07-26T07:40:39.959Z,29.64
2022-07-26T07:41:36.914Z,29.76
2022-07-26T07:42:36.904Z,29.44
2022-07-26T07:43:36.897Z,29.37
2022-07-26T07:44:37.447Z,29.3
2022-07-26T07:45:36.909Z,29.31
2022-07-26T07:46:39.902Z,29.53
2022-07-26T07:47:36.997Z,29.84
2022-07-26T07:48:37.148Z,30.05
2022-07-26T07:49:37.299Z,30.1
2022-07-26T07:50:37.431Z,30.43
2022-07-26T07:51:40.729Z,30.46
2022-07-26T07:52:36.928Z,30.03
2022-07-26T07:53:37.644Z,30.02
2022-07-26T07:54:37.726Z,30.13
2022-07-26T07:55:48.248Z,29.86
2022-07-26T07:56:36.935Z,30.03
2022-07-26T07:57:36.951Z,30.32
2022-07-26T07:58:36.944Z,30.32
2022-07-26T07:59:41.829Z,30.38
2022-07-26T08:00:37.123Z,30.55
2022-07-26T08:01:47.399Z,30.73
2022-07-26T08:02:40.039Z,30.55
2022-07-26T08:03:50.313Z,30.58
2022-07-26T08:04:37.348Z,30.4
2022-07-26T08:05:42.531Z,30.32
2022-07-26T08:06:37.897Z,30.27
2022-07-26T08:07:38.633Z,30.03
2022-07-26T08:08:36.994Z,29.59
2022-07-26T08:09:45.086Z,29.57
2022-07-26T08:10:41.914Z,29.52
2022-07-26T08:11:38.477Z,29.69
2022-07-26T08:12:37.455Z,29.62
2022-07-26T08:13:42.391Z,30.05
2022-07-26T08:14:37.493Z,30.06
2022-07-26T08:15:41.394Z,29.67
2022-07-26T08:16:37.606Z,29.65
2022-07-26T08:17:44.130Z,29.64
2022-07-26T08:18:42.007Z,29.94
2022-07-26T08:19:46.745Z,29.94
2022-07-26T08:20:37.571Z,29.5
2022-07-26T08:21:37.928Z,29.71
2022-07-26T08:22:36.974Z,29.12
2022-07-26T08:23:36.988Z,28.87
2022-07-26T08:24:40.561Z,29.09
2022-07-26T08:25:40.001Z,29.24
2022-07-26T08:26:37.005Z,29.43
2022-07-26T08:28:00.421Z,29.47
2022-07-26T08:29:01.918Z,29.47
2022-07-26T08:29:37.356Z,29.42
2022-07-26T08:30:37.041Z,29.4
2022-07-26T08:31:37.336Z,29.62
2022-07-26T08:32:37.030Z,29.76
2022-07-26T08:33:37.019Z,29.69
2022-07-26T08:34:37.028Z,29.46
2022-07-26T08:35:38.081Z,29.25
2022-07-26T08:36:41.918Z,29.25
2022-07-26T08:37:37.012Z,29.28
2022-07-26T08:38:37.031Z,29.47
2022-07-26T08:39:37.065Z,29.59
2022-07-26T08:40:37.035Z,29.89
2022-07-26T08:41:37.026Z,30.03
2022-07-26T08:42:37.020Z,29.96
2022-07-26T08:43:55.003Z,29.81
2022-07-26T08:44:37.011Z,30.02
2022-07-26T08:45:37.030Z,29.96
2022-07-26T08:46:40.325Z,29.84
2022-07-26T08:48:18.298Z,30.17
2022-07-26T08:48:42.884Z,30.23
2022-07-26T08:49:37.272Z,29.92
2022-07-26T08:50:37.044Z,30.18
2022-07-26T08:51:37.055Z,30.08
2022-07-26T08:52:37.048Z,29.99
2022-07-26T08:53:37.042Z,29.84
2022-07-26T08:54:37.041Z,29.99
2022-07-26T08:56:10.044Z,29.96
2022-07-26T08:56:37.061Z,30.08
2022-07-26T08:57:40.093Z,30.11
2022-07-26T08:58:37.045Z,30.1
2022-07-26T08:59:37.078Z,30.11
2022-07-26T09:00:37.288Z,29.68
2022-07-26T09:01:37.291Z,29.8
2022-07-26T09:02:37.068Z,29.79
2022-07-26T09:03:37.329Z,29.42
2022-07-26T09:04:46.120Z,29.43
2022-07-26T09:05:37.069Z,29.57
2022-07-26T09:06:37.065Z,29.42
2022-07-26T09:07:37.077Z,29.46
2022-07-26T09:08:39.862Z,29.09
2022-07-26T09:09:37.120Z,29.21
2022-07-26T09:10:43.389Z,29.2
2022-07-26T09:11:37.077Z,28.83
2022-07-26T09:12:37.097Z,29.28
2022-07-26T09:13:37.100Z,29.49
2022-07-26T09:14:37.296Z,29.3
2022-07-26T09:15:37.139Z,29.4
2022-07-26T09:16:42.616Z,29.27
2022-07-26T09:17:37.080Z,29.22
2022-07-26T09:18:37.090Z,28.75
2022-07-26T09:19:40.252Z,28.87
2022-07-26T09:20:37.129Z,29.03
2022-07-26T09:21:37.107Z,28.8
2022-07-26T09:22:37.096Z,28.83
2022-07-26T09:23:37.114Z,29.1
2022-07-26T09:24:37.167Z,29.42
2022-07-26T09:25:37.147Z,29.69
2022-07-26T09:26:37.103Z,29.74
2022-07-26T09:27:37.138Z,29.53
2022-07-26T09:28:37.111Z,29.59
2022-07-26T09:29:37.115Z,29.83
2022-07-26T09:30:37.140Z,29.59
2022-07-26T09:31:37.604Z,29.67
2022-07-26T09:32:37.134Z,29.71
2022-07-26T09:33:37.124Z,29.71
2022-07-26T09:34:44.486Z,29.44
2022-07-26T09:35:56.176Z,29.52
2022-07-26T09:36:37.253Z,29.35
2022-07-26T09:37:37.278Z,29.34
2022-07-26T09:38:37.144Z,29.1
2022-07-26T09:39:38.440Z,29.03
2022-07-26T09:40:37.154Z,28.86
2022-07-26T09:41:37.160Z,28.82
2022-07-26T09:42:37.129Z,28.59
2022-07-26T09:43:37.151Z,28.47
2022-07-26T09:44:50.311Z,28.34
2022-07-26T09:45:37.424Z,28.27
2022-07-26T09:46:37.424Z,28.25
2022-07-26T09:47:37.198Z,28.27
2022-07-26T09:49:13.190Z,28.37
2022-07-26T09:49:45.393Z,28.43
2022-07-26T09:50:37.188Z,28.72
2022-07-26T09:51:38.813Z,29.12
2022-07-26T09:52:37.208Z,29.27
2022-07-26T09:53:37.203Z,29.3
2022-07-26T09:54:37.185Z,29.55
2022-07-26T09:55:48.825Z,29.64
2022-07-26T09:56:37.364Z,29.86
2022-07-26T09:57:37.201Z,30.16
2022-07-26T09:58:37.197Z,30.24
2022-07-26T09:59:37.182Z,30.46
2022-07-26T10:00:37.195Z,30.27
2022-07-26T10:01:37.382Z,30.69
2022-07-26T10:02:40.164Z,30.78
2022-07-26T10:03:37.178Z,30.61
2022-07-26T10:04:37.659Z,31.02
2022-07-26T10:05:37.711Z,31
2022-07-26T10:06:37.249Z,31.41
2022-07-26T10:07:40.345Z,31.67
2022-07-26T10:08:37.199Z,31.79
2022-07-26T10:09:37.265Z,31.74
2022-07-26T10:10:38.149Z,32.08
2022-07-26T10:11:37.212Z,31.97
2022-07-26T10:12:37.235Z,31.95
2022-07-26T10:13:39.970Z,31.89
2022-07-26T10:14:37.231Z,31.63
2022-07-26T10:15:37.355Z,31.9
2022-07-26T10:16:40.692Z,31.86
2022-07-26T10:17:43.130Z,31.89
2022-07-26T10:18:42.831Z,31.82
2022-07-26T10:19:48.082Z,31.66
2022-07-26T10:20:42.410Z,31.29
2022-07-26T10:21:37.255Z,31.37
2022-07-26T10:22:37.218Z,31.18
2022-07-26T10:23:37.218Z,31.18
2022-07-26T10:24:39.997Z,30.99
2022-07-26T10:25:37.216Z,31.23
2022-07-26T10:26:37.404Z,31.39
2022-07-26T10:27:37.253Z,31.51
2022-07-26T10:28:37.226Z,31.52
2022-07-26T10:29:40.283Z,31.47
2022-07-26T10:30:40.067Z,31.37
2022-07-26T10:31:37.529Z,31.25
2022-07-26T10:32:37.222Z,31.3
2022-07-26T10:33:37.261Z,30.96
2022-07-26T10:34:37.248Z,30.8
2022-07-26T10:35:40.237Z,30.92
2022-07-26T10:36:37.278Z,31.13
2022-07-26T10:37:37.238Z,30.69
2022-07-26T10:38:37.253Z,30.69
2022-07-26T10:39:37.252Z,30.65
2022-07-26T10:40:40.258Z,30.55
2022-07-26T10:41:37.284Z,30.59
2022-07-26T10:42:37.260Z,30.62
2022-07-26T10:43:46.420Z,30.78
2022-07-26T10:44:37.280Z,30.55
2022-07-26T10:45:37.265Z,30.27
2022-07-26T10:46:37.605Z,30.06
2022-07-26T10:47:40.052Z,30.06
2022-07-26T10:48:37.537Z,29.83
2022-07-26T10:49:37.263Z,29.77
2022-07-26T10:50:37.262Z,30.06
2022-07-26T10:51:40.608Z,29.98
2022-07-26T10:52:37.268Z,30.24
2022-07-26T10:53:37.288Z,30.61
2022-07-26T10:54:37.267Z,30.86
2022-07-26T10:55:37.275Z,30.98
2022-07-26T10:56:38.608Z,31.08
2022-07-26T10:57:37.302Z,31.25
2022-07-26T10:58:37.310Z,31.08
2022-07-26T10:59:59.973Z,31.45
2022-07-26T11:00:37.297Z,31.5
2022-07-26T11:01:37.732Z,31.6
2022-07-26T11:02:40.910Z,31.47
2022-07-26T11:03:42.991Z,31.29
2022-07-26T11:04:39.364Z,31.1
2022-07-26T11:05:37.309Z,30.62
2022-07-26T11:06:37.319Z,30.39
2022-07-26T11:07:37.338Z,30.21
2022-07-26T11:08:37.291Z,30.46
2022-07-26T11:09:37.322Z,30.58
2022-07-26T11:10:37.312Z,30.81
2022-07-26T11:11:37.334Z,30.93
2022-07-26T11:12:37.307Z,31.18
2022-07-26T11:13:40.336Z,31.35
2022-07-26T11:14:38.621Z,31.44
2022-07-26T11:15:37.567Z,31.59
2022-07-26T11:16:37.458Z,31.52
2022-07-26T11:17:37.318Z,31.13
2022-07-26T11:18:37.418Z,31.6
2022-07-26T11:19:37.326Z,31.95
2022-07-26T11:20:37.333Z,32.04
2022-07-26T11:21:37.371Z,32.04
2022-07-26T11:22:37.366Z,32.15
2022-07-26T11:23:37.360Z,32.04
2022-07-26T11:24:40.114Z,31.9
2022-07-26T11:25:37.327Z,31.85
2022-07-26T11:26:37.359Z,32.12
2022-07-26T11:27:37.354Z,32.3
2022-07-26T11:28:37.347Z,32.31
2022-07-26T11:29:51.548Z,32.61
2022-07-26T11:30:37.331Z,32.61
2022-07-26T11:32:17.930Z,32.04
2022-07-26T11:32:41.313Z,32.04
2022-07-26T11:33:37.371Z,31.7
2022-07-26T11:34:37.369Z,32.17
2022-07-26T11:35:37.611Z,32.2
2022-07-26T11:36:37.440Z,32.38
2022-07-26T11:37:37.354Z,32.24
2022-07-26T11:38:37.357Z,32.09
2022-07-26T11:39:37.412Z,31.59
2022-07-26T11:40:37.370Z,31.33
2022-07-26T11:41:39.593Z,31.37
2022-07-26T11:42:37.382Z,31.33
2022-07-26T11:43:37.369Z,30.91
2022-07-26T11:44:37.395Z,30.83
2022-07-26T11:45:37.385Z,31.14
2022-07-26T11:46:41.567Z,31.28
2022-07-26T11:47:37.380Z,31.39
2022-07-26T11:48:37.507Z,31.47
2022-07-26T11:50:23.242Z,31.98
2022-07-26T11:50:37.380Z,32.02
2022-07-26T11:51:37.433Z,31.95
2022-07-26T11:52:37.951Z,32.17
2022-07-26T11:53:39.465Z,32.24
2022-07-26T11:54:37.391Z,31.9
2022-07-26T11:55:38.023Z,32.05
2022-07-26T11:56:37.412Z,31.7
2022-07-26T11:57:37.721Z,32.11
2022-07-26T11:58:37.396Z,32.27
2022-07-26T11:59:37.396Z,32.37
2022-07-26T12:00:37.419Z,32.29
2022-07-26T12:01:37.422Z,32.46
2022-07-26T12:02:40.439Z,32.64
2022-07-26T12:03:37.456Z,32.71
2022-07-26T12:04:37.848Z,32.37
2022-07-26T12:05:37.794Z,32.02
2022-07-26T12:06:37.530Z,31.62
2022-07-26T12:07:37.430Z,31.33
2022-07-26T12:08:37.418Z,31.47
2022-07-26T12:09:37.418Z,31.78
2022-07-26T12:10:37.494Z,31.95
2022-07-26T12:11:37.509Z,32.23
2022-07-26T12:12:37.430Z,32.27
2022-07-26T12:13:59.808Z,32.46
2022-07-26T12:14:37.418Z,32.24
2022-07-26T12:15:37.565Z,32.3
2022-07-26T12:16:37.650Z,32.12
2022-07-26T12:17:39.994Z,32.48
2022-07-26T12:18:37.442Z,32.45
2022-07-26T12:19:37.436Z,32.46
2022-07-26T12:20:37.442Z,32.31
2022-07-26T12:21:37.463Z,32.67
2022-07-26T12:22:37.454Z,32.39
2022-07-26T12:23:37.463Z,32.82
2022-07-26T12:24:37.448Z,33.04
2022-07-26T12:25:37.455Z,32.91
2022-07-26T12:26:37.478Z,32.81
2022-07-26T12:27:37.485Z,32.76
2022-07-26T12:28:37.463Z,32.56
2022-07-26T12:29:38.765Z,32.64
2022-07-26T12:30:37.690Z,32.51
2022-07-26T12:31:37.902Z,32.51
2022-07-26T12:32:37.468Z,32.71
2022-07-26T12:33:37.477Z,32.67
2022-07-26T12:34:40.283Z,32.76
2022-07-26T12:35:37.484Z,32.95
2022-07-26T12:36:37.492Z,32.44
2022-07-26T12:37:44.635Z,32.68
2022-07-26T12:38:37.486Z,32.42
2022-07-26T12:39:37.490Z,32.19
2022-07-26T12:40:40.618Z,32.37
2022-07-26T12:41:37.505Z,32.57
2022-07-26T12:42:39.176Z,32.42
2022-07-26T12:43:37.486Z,32.75
2022-07-26T12:44:37.490Z,32.79
2022-07-26T12:45:40.509Z,32.82
2022-07-26T12:46:38.025Z,32.6
2022-07-26T12:47:37.497Z,32.46
2022-07-26T12:48:37.626Z,32.61
2022-07-26T12:49:37.708Z,32.07
2022-07-26T12:50:37.589Z,31.98
2022-07-26T12:51:40.666Z,31.85
2022-07-26T12:52:37.568Z,31.57
2022-07-26T12:53:37.524Z,31.42
2022-07-26T12:54:37.522Z,31.51
2022-07-26T12:55:37.530Z,31.77